createdAt,value
2022-11-16T00:01:41.742Z,5.91
2022-11-16T00:04:09.544Z,5.96
2022-11-16T00:06:36.048Z,5.94
2022-11-16T00:09:22.007Z,5.79
2022-11-16T00:11:51.113Z,5.83
2022-11-16T00:14:18.821Z,5.87
2022-11-16T00:16:45.243Z,5.94
2022-11-16T00:19:12.332Z,5.87
2022-11-16T00:21:38.913Z,5.87
2022-11-16T00:24:06.054Z,5.86
2022-11-16T00:26:32.512Z,5.85
2022-11-16T00:28:59.193Z,5.93
2022-11-16T00:31:25.613Z,5.93
2022-11-16T00:33:52.160Z,5.92
2022-11-16T00:36:19.036Z,6.02
2022-11-16T00:38:45.965Z,6.04
2022-11-16T00:41:12.493Z,5.99
2022-11-16T00:43:39.035Z,5.93
2022-11-16T00:46:05.796Z,5.83
2022-11-16T00:48:32.688Z,5.90
2022-11-16T00:50:59.292Z,5.97
2022-11-16T00:53:25.887Z,5.97
2022-11-16T00:55:52.275Z,5.97
2022-11-16T00:58:18.684Z,5.92
2022-11-16T01:00:45.150Z,6.09
2022-11-16T01:03:11.996Z,6.05
2022-11-16T01:05:38.869Z,5.88
2022-11-16T01:08:05.850Z,5.91
2022-11-16T01:10:32.311Z,5.93
2022-11-16T01:12:58.830Z,5.99
2022-11-16T01:15:27.374Z,5.93
2022-11-16T01:17:55.582Z,5.95
2022-11-16T01:20:24.812Z,5.82
2022-11-16T01:22:52.027Z,5.82
2022-11-16T01:25:19.209Z,5.76
2022-11-16T01:27:45.940Z,5.91
2022-11-16T01:30:14.504Z,5.89
2022-11-16T01:32:40.975Z,5.86
2022-11-16T01:35:07.753Z,5.61
2022-11-16T01:37:34.382Z,5.56
2022-11-16T01:40:00.894Z,5.69
2022-11-16T01:42:29.518Z,5.71
2022-11-16T01:45:21.509Z,5.65
2022-11-16T01:47:48.392Z,5.76
2022-11-16T01:50:17.156Z,5.68
2022-11-16T01:52:53.002Z,5.75
2022-11-16T01:55:20.901Z,5.78
2022-11-16T01:57:48.746Z,5.73
2022-11-16T02:00:16.185Z,5.80
2022-11-16T02:02:42.618Z,5.80
2022-11-16T02:05:11.131Z,5.71
2022-11-16T02:08:36.774Z,5.69
2022-11-16T02:11:37.864Z,5.72
2022-11-16T02:14:04.211Z,5.69
2022-11-16T02:16:48.233Z,5.83
2022-11-16T02:19:49.880Z,5.64
2022-11-16T02:22:40.639Z,5.79
2022-11-16T02:25:17.055Z,5.84
2022-11-16T02:28:16.503Z,5.81
2022-11-16T02:30:47.101Z,5.71
2022-11-16T02:33:18.003Z,5.67
2022-11-16T02:35:50.001Z,5.63
2022-11-16T02:38:24.227Z,5.55
2022-11-16T02:40:55.860Z,5.47
2022-11-16T02:43:26.405Z,5.48
2022-11-16T02:45:56.998Z,5.47
2022-11-16T02:48:28.698Z,5.51
2022-11-16T02:50:55.796Z,5.29
2022-11-16T02:53:24.406Z,5.38
2022-11-16T02:55:51.348Z,5.50
2022-11-16T02:58:21.309Z,5.50
2022-11-16T03:00:58.814Z,5.55
2022-11-16T03:03:42.257Z,5.61
2022-11-16T03:06:22.820Z,5.57
2022-11-16T03:08:55.146Z,5.50
2022-11-16T03:11:40.203Z,5.57
2022-11-16T03:14:11.771Z,5.38
2022-11-16T03:16:43.128Z,5.41
2022-11-16T03:19:16.906Z,5.36
2022-11-16T03:21:50.965Z,5.47
2022-11-16T03:24:17.607Z,5.62
2022-11-16T03:26:55.713Z,5.58
2022-11-16T03:29:32.691Z,5.53
2022-11-16T03:32:20.959Z,5.53
2022-11-16T03:34:59.625Z,5.59
2022-11-16T03:37:26.480Z,5.55
2022-11-16T03:39:53.949Z,5.64
2022-11-16T03:42:22.855Z,5.64
2022-11-16T03:44:50.208Z,5.65
2022-11-16T03:47:16.665Z,5.68
2022-11-16T03:49:47.573Z,5.78
2022-11-16T03:52:16.719Z,5.74
2022-11-16T03:54:43.172Z,5.81
2022-11-16T03:57:15.377Z,5.85
2022-11-16T03:59:43.228Z,5.75
2022-11-16T04:02:09.878Z,5.76
2022-11-16T04:04:54.813Z,5.80
2022-11-16T04:07:39.519Z,5.87
2022-11-16T04:10:24.919Z,5.82
2022-11-16T04:13:09.999Z,5.74
2022-11-16T04:15:54.733Z,5.76
2022-11-16T04:18:39.433Z,5.82
2022-11-16T04:21:24.756Z,5.84
2022-11-16T04:24:10.001Z,5.76
2022-11-16T04:26:57.952Z,5.84
2022-11-16T04:29:25.178Z,5.88
2022-11-16T04:32:09.934Z,5.91
2022-11-16T04:34:54.623Z,6.08
2022-11-16T04:37:39.959Z,5.97
2022-11-16T04:40:07.189Z,6.02
2022-11-16T04:42:33.612Z,6.14
2022-11-16T04:45:18.588Z,6.15
2022-11-16T04:47:45.182Z,6.06
2022-11-16T04:50:12.418Z,6.05
2022-11-16T04:52:38.828Z,6.18
2022-11-16T04:55:05.721Z,6.20
2022-11-16T04:57:32.124Z,6.22
2022-11-16T04:59:58.597Z,6.15
2022-11-16T05:02:24.999Z,6.23
2022-11-16T05:04:51.388Z,6.27
2022-11-16T05:07:17.882Z,6.30
2022-11-16T05:09:46.733Z,6.27
2022-11-16T05:12:15.881Z,6.33
2022-11-16T05:14:42.974Z,6.38
2022-11-16T05:17:09.776Z,6.36
2022-11-16T05:19:55.222Z,6.33
2022-11-16T05:22:21.974Z,6.42
2022-11-16T05:24:48.455Z,6.43
2022-11-16T05:27:17.309Z,6.48
2022-11-16T05:29:44.308Z,6.53
2022-11-16T05:32:12.358Z,6.43
2022-11-16T05:34:39.199Z,6.56
2022-11-16T05:37:05.620Z,6.56
2022-11-16T05:39:32.086Z,6.62
2022-11-16T05:41:58.535Z,6.56
2022-11-16T05:44:25.343Z,6.51
2022-11-16T05:46:52.444Z,6.55
2022-11-16T05:49:19.034Z,6.51
2022-11-16T05:51:46.808Z,6.53
2022-11-16T05:54:21.170Z,6.51
2022-11-16T05:56:49.534Z,6.53
2022-11-16T05:59:17.650Z,6.52
2022-11-16T06:01:44.153Z,6.58
2022-11-16T06:04:11.571Z,6.67
2022-11-16T06:06:38.482Z,6.67
2022-11-16T06:09:05.501Z,6.65
2022-11-16T06:11:35.835Z,6.67
2022-11-16T06:14:03.428Z,6.65
2022-11-16T06:16:30.179Z,6.67
2022-11-16T06:18:56.619Z,6.62
2022-11-16T06:21:23.321Z,6.64
2022-11-16T06:23:49.794Z,6.63
2022-11-16T06:26:16.291Z,6.56
2022-11-16T06:28:42.730Z,6.58
2022-11-16T06:31:09.185Z,6.53
2022-11-16T06:33:35.755Z,6.57
2022-11-16T06:36:02.244Z,6.63
2022-11-16T06:38:29.054Z,6.68
2022-11-16T06:40:58.501Z,6.54
2022-11-16T06:43:25.987Z,6.63
2022-11-16T06:45:55.092Z,6.68
2022-11-16T06:48:22.557Z,6.59
2022-11-16T06:50:50.195Z,6.63
2022-11-16T06:53:17.742Z,6.65
2022-11-16T06:55:44.452Z,6.73
2022-11-16T06:58:10.998Z,6.58
2022-11-16T07:00:37.679Z,6.64
2022-11-16T07:03:04.495Z,6.69
2022-11-16T07:05:31.935Z,6.64
2022-11-16T07:07:58.436Z,6.62
2022-11-16T07:10:25.539Z,6.55
2022-11-16T07:12:51.990Z,6.61
2022-11-16T07:15:19.440Z,6.55
2022-11-16T07:17:45.877Z,6.47
2022-11-16T07:20:12.395Z,6.44
2022-11-16T07:22:38.832Z,6.43
2022-11-16T07:25:05.776Z,6.44
2022-11-16T07:27:32.178Z,6.58
2022-11-16T07:29:58.745Z,6.63
2022-11-16T07:32:25.169Z,6.63
2022-11-16T07:34:51.559Z,6.60
2022-11-16T07:37:17.997Z,6.58
2022-11-16T07:39:45.623Z,6.59
2022-11-16T07:42:12.268Z,6.64
2022-11-16T07:44:39.185Z,6.72
2022-11-16T07:47:06.975Z,6.66
2022-11-16T07:49:33.365Z,6.64
2022-11-16T07:51:59.816Z,6.66
2022-11-16T07:54:26.234Z,6.70
2022-11-16T07:56:52.641Z,6.70
2022-11-16T07:59:19.058Z,6.68
2022-11-16T08:01:47.700Z,6.68
2022-11-16T08:04:15.433Z,6.72
2022-11-16T08:06:41.893Z,6.67
2022-11-16T08:09:09.340Z,6.73
2022-11-16T08:11:35.826Z,6.77
2022-11-16T08:14:02.323Z,6.78
2022-11-16T08:16:28.838Z,6.80
2022-11-16T08:18:55.308Z,6.79
2022-11-16T08:21:21.785Z,6.77
2022-11-16T08:23:48.766Z,6.80
2022-11-16T08:26:18.179Z,6.80
2022-11-16T08:28:47.151Z,6.82
2022-11-16T08:31:16.545Z,6.82
2022-11-16T08:33:43.191Z,6.84
2022-11-16T08:36:14.348Z,6.77
2022-11-16T08:38:41.090Z,6.81
2022-11-16T08:41:07.723Z,6.83
2022-11-16T08:43:35.740Z,6.85
2022-11-16T08:46:02.455Z,6.80
2022-11-16T08:48:28.883Z,6.82
2022-11-16T08:51:16.373Z,6.80
2022-11-16T08:53:41.728Z,6.76
2022-11-16T08:56:15.024Z,6.86
2022-11-16T08:58:46.951Z,6.89
2022-11-16T09:01:19.221Z,6.80
2022-11-16T09:03:46.481Z,6.77
2022-11-16T09:06:13.463Z,6.90
2022-11-16T09:08:41.175Z,6.83
2022-11-16T09:11:12.353Z,6.82
2022-11-16T09:13:38.807Z,6.83
2022-11-16T09:16:06.121Z,6.84
2022-11-16T09:18:32.924Z,6.83
2022-11-16T09:20:59.828Z,6.80
2022-11-16T09:23:26.346Z,6.84
2022-11-16T09:25:53.466Z,6.77
2022-11-16T09:28:21.591Z,6.87
2022-11-16T09:30:50.717Z,6.82
2022-11-16T09:33:17.199Z,6.79
2022-11-16T09:35:43.966Z,6.84
2022-11-16T09:38:12.668Z,6.82
2022-11-16T09:40:46.208Z,6.77
2022-11-16T09:43:47.057Z,6.78
2022-11-16T09:46:30.108Z,6.76
2022-11-16T09:48:58.867Z,6.72
2022-11-16T09:51:29.450Z,6.66
2022-11-16T09:54:02.302Z,6.73
2022-11-16T09:56:31.238Z,6.79
2022-11-16T09:59:19.460Z,6.73
2022-11-16T10:02:16.824Z,6.80
2022-11-16T10:04:52.492Z,6.75
2022-11-16T10:07:27.781Z,6.70
2022-11-16T10:09:56.077Z,6.62
2022-11-16T10:12:37.885Z,6.63
2022-11-16T10:15:23.529Z,6.62
2022-11-16T10:17:57.643Z,6.66
2022-11-16T10:20:42.050Z,6.69
2022-11-16T10:23:24.849Z,6.65
2022-11-16T10:26:03.423Z,6.67
2022-11-16T10:28:57.458Z,6.68
2022-11-16T10:31:42.014Z,6.73
2022-11-16T10:34:13.956Z,6.76
2022-11-16T10:36:40.477Z,6.68
2022-11-16T10:39:13.385Z,6.73
2022-11-16T10:41:46.900Z,6.67
2022-11-16T10:44:27.201Z,6.68
2022-11-16T10:47:02.633Z,6.54
2022-11-16T10:49:39.954Z,6.60
2022-11-16T10:52:06.519Z,6.70
2022-11-16T10:54:32.948Z,6.74
2022-11-16T10:57:13.983Z,6.61
2022-11-16T10:59:49.941Z,6.72
2022-11-16T11:02:34.495Z,6.69
2022-11-16T11:05:21.246Z,6.81
2022-11-16T11:07:59.868Z,6.76
2022-11-16T11:10:30.080Z,6.80
2022-11-16T11:13:10.613Z,6.60
2022-11-16T11:15:41.361Z,6.64
2022-11-16T11:18:23.150Z,6.67
2022-11-16T11:21:05.440Z,6.73
2022-11-16T11:23:38.094Z,6.76
2022-11-16T11:26:05.069Z,6.82
2022-11-16T11:28:32.828Z,6.89
2022-11-16T11:31:03.760Z,6.80
2022-11-16T11:33:35.164Z,6.86
2022-11-16T11:36:18.700Z,6.78
2022-11-16T11:39:06.798Z,6.82
2022-11-16T11:42:04.477Z,6.76
2022-11-16T11:45:02.465Z,6.93
2022-11-16T11:48:06.978Z,7.05
2022-11-16T11:50:44.499Z,6.97
2022-11-16T11:53:37.104Z,6.86
2022-11-16T11:56:03.952Z,6.82
2022-11-16T11:58:33.905Z,6.89
2022-11-16T12:01:24.875Z,6.89
2022-11-16T12:04:21.921Z,6.98
2022-11-16T12:07:07.589Z,7.01
2022-11-16T12:09:36.816Z,6.96
2022-11-16T12:12:22.801Z,6.94
2022-11-16T12:14:58.249Z,6.97
2022-11-16T12:17:40.865Z,7.01
2022-11-16T12:20:27.059Z,6.94
2022-11-16T12:22:59.742Z,6.96
2022-11-16T12:25:30.034Z,6.96
2022-11-16T12:28:19.880Z,7.01
2022-11-16T12:31:14.798Z,7.05
2022-11-16T12:34:07.410Z,7.12
2022-11-16T12:37:05.716Z,7.02
2022-11-16T12:39:44.317Z,7.03
2022-11-16T12:42:17.697Z,7.02
2022-11-16T12:45:14.470Z,7.05
2022-11-16T12:47:49.686Z,6.99
2022-11-16T12:50:44.858Z,6.96
2022-11-16T12:53:26.920Z,7.00
2022-11-16T12:56:22.662Z,7.00
2022-11-16T12:59:26.188Z,7.01
2022-11-16T13:02:00.350Z,7.05
2022-11-16T13:04:40.936Z,7.05
2022-11-16T13:07:32.888Z,7.01
2022-11-16T13:10:02.720Z,7.05
2022-11-16T13:12:30.746Z,7.09
2022-11-16T13:14:59.986Z,7.03
2022-11-16T13:17:34.531Z,7.06
2022-11-16T13:20:19.833Z,7.03
2022-11-16T13:22:56.839Z,7.11
2022-11-16T13:25:48.879Z,7.11
2022-11-16T13:28:33.548Z,7.05
2022-11-16T13:31:55.743Z,7.06
2022-11-16T13:34:29.139Z,7.18
2022-11-16T13:36:55.590Z,7.16
2022-11-16T13:40:04.945Z,7.24
2022-11-16T13:42:34.097Z,7.17
2022-11-16T13:45:18.176Z,7.20
2022-11-16T13:47:56.754Z,7.22
2022-11-16T13:50:35.967Z,7.24
2022-11-16T13:56:07.493Z,7.13
2022-11-16T13:58:36.293Z,7.14
2022-11-16T14:01:08.724Z,7.18
2022-11-16T14:03:40.174Z,7.11
2022-11-16T14:06:29.258Z,7.20
2022-11-16T14:08:59.856Z,7.24
2022-11-16T14:11:33.659Z,7.25
2022-11-16T14:14:05.789Z,7.20
2022-11-16T14:16:44.424Z,7.22
2022-11-16T14:19:55.076Z,7.14
2022-11-16T14:22:35.195Z,7.14
2022-11-16T14:25:06.173Z,7.17
2022-11-16T14:27:48.748Z,7.19
2022-11-16T14:30:24.586Z,7.24
2022-11-16T14:32:54.601Z,7.26
2022-11-16T14:35:29.451Z,7.21
2022-11-16T14:38:06.157Z,7.13
2022-11-16T14:40:56.204Z,7.13
2022-11-16T14:43:30.064Z,7.05
2022-11-16T14:46:05.904Z,7.07
2022-11-16T14:48:32.494Z,6.97
2022-11-16T14:51:01.947Z,7.04
2022-11-16T14:53:29.603Z,6.98
2022-11-16T14:56:07.459Z,7.10
2022-11-16T14:58:33.901Z,7.08
2022-11-16T15:01:06.222Z,7.08
2022-11-16T15:04:03.520Z,7.06
2022-11-16T15:06:43.545Z,6.98
2022-11-16T15:09:33.136Z,6.91
2022-11-16T15:12:20.999Z,6.98
2022-11-16T15:14:51.910Z,6.97
2022-11-16T15:17:27.294Z,6.92
2022-11-16T15:19:59.189Z,6.93
2022-11-16T15:22:31.446Z,6.92
2022-11-16T15:25:00.498Z,6.94
2022-11-16T15:27:38.644Z,6.96
2022-11-16T15:30:16.911Z,6.94
2022-11-16T15:32:45.763Z,6.99
2022-11-16T15:35:21.576Z,7.01
2022-11-16T15:37:48.554Z,6.98
2022-11-16T15:40:15.286Z,7.00
2022-11-16T15:42:43.104Z,6.94
2022-11-16T15:45:20.901Z,6.97
2022-11-16T15:47:47.659Z,6.90
2022-11-16T15:50:23.081Z,7.04
2022-11-16T15:52:57.014Z,6.97
2022-11-16T15:55:32.159Z,6.98
2022-11-16T15:58:01.677Z,7.00
2022-11-16T16:00:29.890Z,7.01
2022-11-16T16:03:05.120Z,6.92
2022-11-16T16:05:39.695Z,7.06
2022-11-16T16:08:23.150Z,7.03
2022-11-16T16:11:24.011Z,6.97
2022-11-16T16:14:02.011Z,7.06
2022-11-16T16:16:39.041Z,7.05
2022-11-16T16:19:24.245Z,7.06
2022-11-16T16:21:51.508Z,6.93
2022-11-16T16:24:42.204Z,6.85
2022-11-16T16:27:20.043Z,6.94
2022-11-16T16:29:48.131Z,6.98
2022-11-16T16:32:31.056Z,6.95
2022-11-16T16:35:08.509Z,6.93
2022-11-16T16:37:38.498Z,7.11
2022-11-16T16:40:05.556Z,7.06
2022-11-16T16:42:32.013Z,6.94
2022-11-16T16:45:02.459Z,7.01
2022-11-16T16:47:28.953Z,6.94
2022-11-16T16:49:55.610Z,6.94
2022-11-16T16:52:22.047Z,6.96
2022-11-16T16:54:48.451Z,6.88
2022-11-16T16:57:16.744Z,6.96
2022-11-16T16:59:45.284Z,6.89
2022-11-16T17:02:12.442Z,6.99
2022-11-16T17:04:39.054Z,7.00
2022-11-16T17:07:05.733Z,7.10
2022-11-16T17:09:32.207Z,7.13
2022-11-16T17:11:58.668Z,6.99
2022-11-16T17:14:25.149Z,6.99
2022-11-16T17:16:51.955Z,7.08
2022-11-16T17:19:18.895Z,7.05
2022-11-16T17:21:45.779Z,7.03
2022-11-16T17:24:12.523Z,7.05
2022-11-16T17:26:40.474Z,7.13
2022-11-16T17:29:06.997Z,7.00
2022-11-16T17:31:33.485Z,7.08
2022-11-16T17:33:59.992Z,7.13
2022-11-16T17:36:26.406Z,7.10
2022-11-16T17:38:52.808Z,7.02
2022-11-16T17:41:21.719Z,7.04
2022-11-16T17:43:48.387Z,7.06
2022-11-16T17:46:17.777Z,6.99
2022-11-16T17:48:47.026Z,6.99
2022-11-16T17:51:16.263Z,7.01
2022-11-16T17:53:45.573Z,7.01
2022-11-16T17:56:17.596Z,7.08
2022-11-16T17:58:45.163Z,6.99
2022-11-16T18:01:12.289Z,7.04
2022-11-16T18:03:39.578Z,6.88
2022-11-16T18:06:35.039Z,6.93
2022-11-16T18:09:01.666Z,6.77
2022-11-16T18:11:28.857Z,6.70
2022-11-16T18:14:05.490Z,6.81
2022-11-16T18:16:33.322Z,6.76
2022-11-16T18:19:02.082Z,6.79
2022-11-16T18:21:29.587Z,6.77
2022-11-16T18:23:56.148Z,6.87
2022-11-16T18:26:24.015Z,6.84
2022-11-16T18:28:52.017Z,6.82
2022-11-16T18:31:20.790Z,6.69
2022-11-16T18:33:49.059Z,6.77
2022-11-16T18:36:16.746Z,6.90
2022-11-16T18:38:43.328Z,6.88
2022-11-16T18:41:12.778Z,6.80
2022-11-16T18:43:51.651Z,6.86
2022-11-16T18:46:23.975Z,6.93
2022-11-16T18:48:51.069Z,6.88
2022-11-16T18:51:19.318Z,6.82
2022-11-16T18:53:46.018Z,6.82
2022-11-16T18:56:12.836Z,6.71
2022-11-16T18:58:55.133Z,6.80
2022-11-16T19:01:24.358Z,6.63
2022-11-16T19:03:52.434Z,6.66
2022-11-16T19:06:19.486Z,6.66
2022-11-16T19:08:52.135Z,6.65
2022-11-16T19:11:22.544Z,6.66
2022-11-16T19:13:57.179Z,6.65
2022-11-16T19:16:24.686Z,6.60
2022-11-16T19:18:51.557Z,6.68
2022-11-16T19:21:18.688Z,6.63
2022-11-16T19:23:47.265Z,6.66
2022-11-16T19:26:15.869Z,6.65
2022-11-16T19:28:44.535Z,6.61
2022-11-16T19:31:13.622Z,6.71
2022-11-16T19:33:41.098Z,6.70
2022-11-16T19:36:13.502Z,6.68
2022-11-16T19:38:40.325Z,6.75
2022-11-16T19:41:08.218Z,6.72
2022-11-16T19:43:35.531Z,6.50
2022-11-16T19:46:05.013Z,6.67
2022-11-16T19:48:32.592Z,6.55
2022-11-16T19:51:09.970Z,6.43
2022-11-16T19:53:38.264Z,6.58
2022-11-16T19:56:06.692Z,6.54
2022-11-16T19:58:38.259Z,6.50
2022-11-16T20:01:07.069Z,6.52
2022-11-16T20:03:34.692Z,6.44
2022-11-16T20:06:08.728Z,6.55
2022-11-16T20:08:36.122Z,6.47
2022-11-16T20:11:13.630Z,6.50
2022-11-16T20:13:41.950Z,6.55
2022-11-16T20:16:11.085Z,6.56
2022-11-16T20:18:38.591Z,6.57
2022-11-16T20:21:06.027Z,6.59
2022-11-16T20:23:37.524Z,6.52
2022-11-16T20:26:09.235Z,6.57
2022-11-16T20:28:37.460Z,6.35
2022-11-16T20:31:07.470Z,6.32
2022-11-16T20:33:34.839Z,6.37
2022-11-16T20:36:05.919Z,6.45
2022-11-16T20:38:36.818Z,6.41
2022-11-16T20:41:09.323Z,6.34
2022-11-16T20:43:36.740Z,6.15
2022-11-16T20:46:03.373Z,6.24
2022-11-16T20:48:29.800Z,6.21
2022-11-16T20:50:56.328Z,6.11
2022-11-16T20:53:22.883Z,6.13
2022-11-16T20:55:50.084Z,5.89
2022-11-16T20:58:22.436Z,5.92
2022-11-16T21:00:49.775Z,6.01
2022-11-16T21:03:16.518Z,6.00
2022-11-16T21:05:50.919Z,6.03
2022-11-16T21:08:17.935Z,6.07
2022-11-16T21:10:44.732Z,6.02
2022-11-16T21:13:32.878Z,6.00
2022-11-16T21:16:01.926Z,6.16
2022-11-16T21:18:30.854Z,6.07
2022-11-16T21:21:02.010Z,6.08
2022-11-16T21:23:30.222Z,6.00
2022-11-16T21:26:02.656Z,5.85
2022-11-16T21:28:29.598Z,5.92
2022-11-16T21:31:00.761Z,5.90
2022-11-16T21:33:28.325Z,5.90
2022-11-16T21:35:55.441Z,6.01
2022-11-16T21:38:23.100Z,5.90
2022-11-16T21:40:50.083Z,5.77
2022-11-16T21:43:17.116Z,5.88
2022-11-16T21:45:45.055Z,5.85
2022-11-16T21:48:12.141Z,5.75
2022-11-16T21:50:39.051Z,5.85
2022-11-16T21:53:06.983Z,5.86
2022-11-16T21:55:34.390Z,5.88
2022-11-16T21:58:03.353Z,5.66
2022-11-16T22:00:29.988Z,5.54
2022-11-16T22:02:56.399Z,5.79
2022-11-16T22:05:41.177Z,5.83
2022-11-16T22:08:09.648Z,5.75
2022-11-16T22:10:36.058Z,5.75
2022-11-16T22:13:02.474Z,5.74
2022-11-16T22:15:29.381Z,5.72
2022-11-16T22:17:55.799Z,5.72
2022-11-16T22:20:22.380Z,5.64
2022-11-16T22:22:48.913Z,5.54
2022-11-16T22:25:15.804Z,5.60
2022-11-16T22:27:58.680Z,5.61
2022-11-16T22:30:28.641Z,5.56
2022-11-16T22:32:55.041Z,5.39
2022-11-16T22:35:21.432Z,5.34
2022-11-16T22:37:47.845Z,5.45
2022-11-16T22:40:17.748Z,5.49
2022-11-16T22:42:44.436Z,5.52
2022-11-16T22:45:10.886Z,5.36
2022-11-16T22:47:37.429Z,5.25
2022-11-16T22:50:04.134Z,5.36
2022-11-16T22:52:30.572Z,5.52
2022-11-16T22:54:57.031Z,5.52
2022-11-16T22:57:23.450Z,5.62
2022-11-16T22:59:49.844Z,5.36
2022-11-16T23:02:16.290Z,5.25
2022-11-16T23:04:42.698Z,5.41
2022-11-16T23:07:09.213Z,5.42
2022-11-16T23:09:35.705Z,5.18
2022-11-16T23:12:20.487Z,5.30
2022-11-16T23:15:09.809Z,5.36
2022-11-16T23:17:36.178Z,5.37
2022-11-16T23:20:21.587Z,5.32
2022-11-16T23:23:06.612Z,5.22
2022-11-16T23:25:51.863Z,5.10
2022-11-16T23:28:19.729Z,5.24
2022-11-16T23:30:46.161Z,5.15
2022-11-16T23:33:12.801Z,5.20
2022-11-16T23:35:39.215Z,5.30
2022-11-16T23:38:07.003Z,5.30
2022-11-16T23:40:38.735Z,5.10
2022-11-16T23:43:25.254Z,5.19
2022-11-16T23:45:51.542Z,5.23
2022-11-16T23:48:18.747Z,5.28
2022-11-16T23:50:46.181Z,5.17
2022-11-16T23:53:12.685Z,5.39
2022-11-16T23:55:39.738Z,5.36
2022-11-16T23:58:07.715Z,5.32
